sensor_id;sensor_type;location;lat;lon;timestamp;pressure;altitude;pressure_sealevel;temperature;humidity
163;BME280;3946;48.958;8.284;2023-05-24T00:02:14;100769.00;;;14.35;69.84
163;BME280;3946;48.958;8.284;2023-05-24T00:04:59;100758.56;;;14.35;69.67
163;BME280;3946;48.958;8.284;2023-05-24T00:07:44;100757.22;;;14.43;69.47
163;BME280;3946;48.958;8.284;2023-05-24T00:10:30;100757.97;;;14.32;69.61
163;BME280;3946;48.958;8.284;2023-05-24T00:13:16;100763.78;;;14.35;69.84
163;BME280;3946;48.958;8.284;2023-05-24T00:16:02;100758.34;;;14.39;69.24
163;BME280;3946;48.958;8.284;2023-05-24T00:18:47;100756.91;;;14.34;69.57
163;BME280;3946;48.958;8.284;2023-05-24T00:21:33;100755.09;;;14.24;69.81
163;BME280;3946;48.958;8.284;2023-05-24T00:24:19;100752.41;;;14.13;69.80
163;BME280;3946;48.958;8.284;2023-05-24T00:27:05;100742.34;;;14.08;69.77
163;BME280;3946;48.958;8.284;2023-05-24T00:29:52;100746.31;;;14.01;69.99
163;BME280;3946;48.958;8.284;2023-05-24T00:32:38;100751.31;;;14.04;70.75
163;BME280;3946;48.958;8.284;2023-05-24T00:35:27;100762.81;;;13.89;71.09
163;BME280;3946;48.958;8.284;2023-05-24T00:38:12;100765.44;;;13.89;71.45
163;BME280;3946;48.958;8.284;2023-05-24T00:40:57;100775.44;;;13.82;71.85
163;BME280;3946;48.958;8.284;2023-05-24T00:43:44;100779.94;;;13.68;72.14
163;BME280;3946;48.958;8.284;2023-05-24T00:46:32;100773.50;;;13.73;72.44
163;BME280;3946;48.958;8.284;2023-05-24T00:49:18;100770.09;;;13.60;72.72
163;BME280;3946;48.958;8.284;2023-05-24T00:52:04;100768.31;;;13.60;73.00
163;BME280;3946;48.958;8.284;2023-05-24T00:54:50;100771.88;;;13.47;73.36
163;BME280;3946;48.958;8.284;2023-05-24T00:57:35;100777.28;;;13.44;73.83
163;BME280;3946;48.958;8.284;2023-05-24T01:00:21;100785.41;;;13.39;73.73
163;BME280;3946;48.958;8.284;2023-05-24T01:03:08;100779.91;;;13.31;74.17
163;BME280;3946;48.958;8.284;2023-05-24T01:05:54;100780.31;;;13.25;74.12
163;BME280;3946;48.958;8.284;2023-05-24T01:09:07;100788.41;;;13.20;74.78
163;BME280;3946;48.958;8.284;2023-05-24T01:12:07;100784.16;;;13.19;74.65
163;BME280;3946;48.958;8.284;2023-05-24T01:15:02;100780.47;;;13.09;75.15
163;BME280;3946;48.958;8.284;2023-05-24T01:17:59;100779.53;;;13.10;75.23
163;BME280;3946;48.958;8.284;2023-05-24T01:20:49;100788.69;;;13.03;76.02
163;BME280;3946;48.958;8.284;2023-05-24T01:23:42;100791.72;;;13.10;76.93
163;BME280;3946;48.958;8.284;2023-05-24T01:26:36;100792.31;;;13.01;77.51
163;BME280;3946;48.958;8.284;2023-05-24T01:29:25;100792.31;;;12.88;78.44
163;BME280;3946;48.958;8.284;2023-05-24T01:32:11;100788.22;;;12.84;78.64
163;BME280;3946;48.958;8.284;2023-05-24T01:34:56;100786.72;;;13.07;77.95
163;BME280;3946;48.958;8.284;2023-05-24T01:37:42;100793.25;;;12.87;78.57
163;BME280;3946;48.958;8.284;2023-05-24T01:40:27;100795.34;;;12.94;78.56
163;BME280;3946;48.958;8.284;2023-05-24T01:43:14;100795.97;;;12.98;78.27
163;BME280;3946;48.958;8.284;2023-05-24T01:46:10;100797.00;;;12.95;78.55
163;BME280;3946;48.958;8.284;2023-05-24T01:49:05;100797.19;;;12.80;77.74
163;BME280;3946;48.958;8.284;2023-05-24T01:51:58;100796.03;;;12.84;78.13
163;BME280;3946;48.958;8.284;2023-05-24T01:54:47;100792.94;;;12.91;77.84
163;BME280;3946;48.958;8.284;2023-05-24T01:57:36;100792.22;;;12.89;78.11
163;BME280;3946;48.958;8.284;2023-05-24T02:00:25;100797.31;;;12.91;77.73
163;BME280;3946;48.958;8.284;2023-05-24T02:03:13;100793.03;;;12.90;77.79
163;BME280;3946;48.958;8.284;2023-05-24T02:05:58;100796.47;;;12.90;77.65
163;BME280;3946;48.958;8.284;2023-05-24T02:08:43;100811.06;;;12.93;77.56
163;BME280;3946;48.958;8.284;2023-05-24T02:11:29;100799.28;;;12.87;77.10
163;BME280;3946;48.958;8.284;2023-05-24T02:14:14;100802.16;;;12.83;76.94
163;BME280;3946;48.958;8.284;2023-05-24T02:17:02;100808.19;;;12.83;76.93
163;BME280;3946;48.958;8.284;2023-05-24T02:19:50;100800.31;;;12.85;76.81
163;BME280;3946;48.958;8.284;2023-05-24T02:22:35;100804.06;;;12.81;76.89
163;BME280;3946;48.958;8.284;2023-05-24T02:25:21;100804.66;;;12.72;77.40
163;BME280;3946;48.958;8.284;2023-05-24T02:28:06;100803.91;;;12.70;77.49
163;BME280;3946;48.958;8.284;2023-05-24T02:30:52;100805.00;;;12.80;77.11
163;BME280;3946;48.958;8.284;2023-05-24T02:33:37;100808.28;;;12.69;77.17
163;BME280;3946;48.958;8.284;2023-05-24T02:36:24;100804.84;;;12.69;77.10
163;BME280;3946;48.958;8.284;2023-05-24T02:39:10;100796.94;;;12.70;76.25
163;BME280;3946;48.958;8.284;2023-05-24T02:41:55;100802.84;;;12.59;76.36
163;BME280;3946;48.958;8.284;2023-05-24T02:44:41;100798.03;;;12.53;76.43
163;BME280;3946;48.958;8.284;2023-05-24T02:47:26;100801.09;;;12.60;76.01
163;BME280;3946;48.958;8.284;2023-05-24T02:50:12;100789.84;;;12.59;75.82
163;BME280;3946;48.958;8.284;2023-05-24T02:52:58;100805.75;;;12.55;76.12
163;BME280;3946;48.958;8.284;2023-05-24T02:55:44;100806.88;;;12.51;75.81
163;BME280;3946;48.958;8.284;2023-05-24T02:58:30;100803.56;;;12.49;75.66
163;BME280;3946;48.958;8.284;2023-05-24T03:01:15;100792.22;;;12.50;75.16
163;BME280;3946;48.958;8.284;2023-05-24T03:04:01;100788.91;;;12.48;75.46
163;BME280;3946;48.958;8.284;2023-05-24T03:06:47;100788.78;;;12.49;75.14
163;BME280;3946;48.958;8.284;2023-05-24T03:09:35;100781.47;;;12.42;74.91
163;BME280;3946;48.958;8.284;2023-05-24T03:12:20;100790.22;;;12.41;74.97
163;BME280;3946;48.958;8.284;2023-05-24T03:15:07;100782.03;;;12.47;74.67
163;BME280;3946;48.958;8.284;2023-05-24T03:17:52;100779.72;;;12.42;74.18
163;BME280;3946;48.958;8.284;2023-05-24T03:20:38;100778.34;;;12.37;74.74
163;BME280;3946;48.958;8.284;2023-05-24T03:23:24;100773.03;;;12.38;74.21
163;BME280;3946;48.958;8.284;2023-05-24T03:26:11;100777.13;;;12.42;73.80
163;BME280;3946;48.958;8.284;2023-05-24T03:28:56;100771.28;;;12.39;73.34
163;BME280;3946;48.958;8.284;2023-05-24T03:31:48;100772.13;;;12.39;73.92
163;BME280;3946;48.958;8.284;2023-05-24T03:34:34;100775.81;;;12.35;73.83
163;BME280;3946;48.958;8.284;2023-05-24T03:37:19;100762.97;;;12.34;73.45
163;BME280;3946;48.958;8.284;2023-05-24T03:40:06;100777.75;;;12.19;74.47
163;BME280;3946;48.958;8.284;2023-05-24T03:43:05;100762.22;;;12.32;73.82
163;BME280;3946;48.958;8.284;2023-05-24T03:46:00;100758.69;;;12.33;73.69
163;BME280;3946;48.958;8.284;2023-05-24T03:48:45;100768.88;;;12.36;73.29
163;BME280;3946;48.958;8.284;2023-05-24T03:51:30;100768.16;;;12.34;74.41
163;BME280;3946;48.958;8.284;2023-05-24T03:54:16;100762.13;;;12.33;74.08
163;BME280;3946;48.958;8.284;2023-05-24T03:57:02;100769.38;;;12.28;74.49
163;BME280;3946;48.958;8.284;2023-05-24T03:59:48;100782.91;;;12.33;74.19
163;BME280;3946;48.958;8.284;2023-05-24T04:02:33;100777.81;;;12.32;74.62
163;BME280;3946;48.958;8.284;2023-05-24T04:05:20;100791.84;;;12.29;74.66
163;BME280;3946;48.958;8.284;2023-05-24T04:08:10;100791.38;;;12.22;74.70
163;BME280;3946;48.958;8.284;2023-05-24T04:10:57;100792.72;;;12.15;74.52
163;BME280;3946;48.958;8.284;2023-05-24T04:13:43;100789.72;;;12.21;74.45
163;BME280;3946;48.958;8.284;2023-05-24T04:16:30;100781.28;;;12.18;73.68
163;BME280;3946;48.958;8.284;2023-05-24T04:19:16;100784.81;;;12.17;73.71
163;BME280;3946;48.958;8.284;2023-05-24T04:22:02;100782.75;;;12.22;73.18
163;BME280;3946;48.958;8.284;2023-05-24T04:24:47;100795.75;;;12.22;74.28
163;BME280;3946;48.958;8.284;2023-05-24T04:27:33;100786.59;;;12.16;73.36
163;BME280;3946;48.958;8.284;2023-05-24T04:30:19;100780.16;;;12.22;73.35
163;BME280;3946;48.958;8.284;2023-05-24T04:33:06;100788.03;;;12.20;73.47
163;BME280;3946;48.958;8.284;2023-05-24T04:35:52;100809.84;;;12.18;74.39
163;BME280;3946;48.958;8.284;2023-05-24T04:38:37;100802.75;;;12.34;74.19
163;BME280;3946;48.958;8.284;2023-05-24T04:41:23;100807.59;;;12.26;74.55
163;BME280;3946;48.958;8.284;2023-05-24T04:44:10;100802.34;;;12.13;74.67
163;BME280;3946;48.958;8.284;2023-05-24T04:46:55;100810.69;;;12.18;74.88
163;BME280;3946;48.958;8.284;2023-05-24T04:49:42;100822.13;;;12.16;75.10
163;BME280;3946;48.958;8.284;2023-05-24T04:52:27;100822.22;;;12.14;75.68
163;BME280;3946;48.958;8.284;2023-05-24T04:55:13;100821.81;;;12.20;75.87
163;BME280;3946;48.958;8.284;2023-05-24T04:57:58;100824.72;;;12.16;75.46
163;BME280;3946;48.958;8.284;2023-05-24T05:00:44;100826.47;;;12.15;76.02
163;BME280;3946;48.958;8.284;2023-05-24T05:03:29;100832.41;;;12.17;76.84
163;BME280;3946;48.958;8.284;2023-05-24T05:06:16;100835.19;;;12.14;76.39
163;BME280;3946;48.958;8.284;2023-05-24T05:09:01;100826.28;;;12.04;76.11
163;BME280;3946;48.958;8.284;2023-05-24T05:11:47;100838.91;;;12.10;76.77
163;BME280;3946;48.958;8.284;2023-05-24T05:14:32;100844.94;;;12.11;76.75
163;BME280;3946;48.958;8.284;2023-05-24T05:17:17;100843.09;;;12.13;77.01
163;BME280;3946;48.958;8.284;2023-05-24T05:20:03;100847.16;;;12.17;76.11
163;BME280;3946;48.958;8.284;2023-05-24T05:22:50;100839.72;;;12.25;75.79
163;BME280;3946;48.958;8.284;2023-05-24T05:25:35;100839.25;;;12.18;76.22
163;BME280;3946;48.958;8.284;2023-05-24T05:28:20;100841.84;;;12.33;76.36
163;BME280;3946;48.958;8.284;2023-05-24T05:31:06;100838.50;;;12.31;75.83
163;BME280;3946;48.958;8.284;2023-05-24T05:33:51;100835.16;;;12.29;75.93
163;BME280;3946;48.958;8.284;2023-05-24T05:36:37;100836.97;;;12.14;76.58
163;BME280;3946;48.958;8.284;2023-05-24T05:39:24;100830.44;;;12.21;76.80
163;BME280;3946;48.958;8.284;2023-05-24T05:42:10;100832.00;;;12.23;76.83
163;BME280;3946;48.958;8.284;2023-05-24T05:44:55;100837.31;;;12.22;77.31
163;BME280;3946;48.958;8.284;2023-05-24T05:47:41;100841.00;;;12.32;77.13
163;BME280;3946;48.958;8.284;2023-05-24T05:50:26;100834.06;;;12.33;76.87
163;BME280;3946;48.958;8.284;2023-05-24T05:53:12;100831.13;;;12.37;76.93
163;BME280;3946;48.958;8.284;2023-05-24T05:55:58;100836.19;;;12.53;77.45
163;BME280;3946;48.958;8.284;2023-05-24T05:58:44;100827.28;;;12.57;77.32
163;BME280;3946;48.958;8.284;2023-05-24T06:01:29;100815.78;;;12.74;75.78
163;BME280;3946;48.958;8.284;2023-05-24T06:04:15;100830.94;;;12.67;76.16
163;BME280;3946;48.958;8.284;2023-05-24T06:07:00;100829.31;;;12.66;76.10
163;BME280;3946;48.958;8.284;2023-05-24T06:09:45;100834.59;;;12.65;76.13
163;BME280;3946;48.958;8.284;2023-05-24T06:12:32;100837.13;;;12.52;76.28
163;BME280;3946;48.958;8.284;2023-05-24T06:15:17;100838.59;;;12.56;76.42
163;BME280;3946;48.958;8.284;2023-05-24T06:18:06;100831.78;;;12.41;75.63
163;BME280;3946;48.958;8.284;2023-05-24T06:20:51;100837.63;;;12.44;75.72
163;BME280;3946;48.958;8.284;2023-05-24T06:23:36;100835.47;;;12.51;75.18
163;BME280;3946;48.958;8.284;2023-05-24T06:26:22;100841.09;;;12.31;75.84
163;BME280;3946;48.958;8.284;2023-05-24T06:29:09;100850.34;;;12.49;76.13
163;BME280;3946;48.958;8.284;2023-05-24T06:31:54;100844.78;;;12.68;75.23
163;BME280;3946;48.958;8.284;2023-05-24T06:34:39;100853.38;;;12.82;75.59
163;BME280;3946;48.958;8.284;2023-05-24T06:37:26;100845.03;;;12.77;74.11
163;BME280;3946;48.958;8.284;2023-05-24T06:40:13;100848.00;;;12.71;74.29
163;BME280;3946;48.958;8.284;2023-05-24T06:42:59;100854.59;;;12.77;74.03
163;BME280;3946;48.958;8.284;2023-05-24T06:45:46;100848.91;;;12.57;74.16
163;BME280;3946;48.958;8.284;2023-05-24T06:48:31;100856.66;;;12.72;73.86
163;BME280;3946;48.958;8.284;2023-05-24T06:51:16;100841.47;;;12.66;73.31
163;BME280;3946;48.958;8.284;2023-05-24T06:54:02;100854.97;;;12.71;74.04
163;BME280;3946;48.958;8.284;2023-05-24T06:56:47;100847.44;;;12.80;73.12
163;BME280;3946;48.958;8.284;2023-05-24T06:59:32;100854.75;;;13.01;72.90
163;BME280;3946;48.958;8.284;2023-05-24T07:02:19;100846.50;;;13.21;71.60
163;BME280;3946;48.958;8.284;2023-05-24T07:05:09;100853.81;;;13.54;71.69
163;BME280;3946;48.958;8.284;2023-05-24T07:07:54;100838.81;;;13.45;71.15
163;BME280;3946;48.958;8.284;2023-05-24T07:10:40;100849.75;;;13.62;72.24
163;BME280;3946;48.958;8.284;2023-05-24T07:13:25;100821.94;;;13.76;69.62
163;BME280;3946;48.958;8.284;2023-05-24T07:16:11;100837.47;;;13.77;69.71
163;BME280;3946;48.958;8.284;2023-05-24T07:18:57;100866.00;;;13.79;71.29
163;BME280;3946;48.958;8.284;2023-05-24T07:21:43;100873.69;;;13.68;71.52
163;BME280;3946;48.958;8.284;2023-05-24T07:24:28;100876.09;;;13.83;71.15
163;BME280;3946;48.958;8.284;2023-05-24T07:27:13;100850.47;;;13.39;69.38
163;BME280;3946;48.958;8.284;2023-05-24T07:29:59;100846.72;;;13.30;69.59
163;BME280;3946;48.958;8.284;2023-05-24T07:32:44;100847.88;;;13.26;69.19
163;BME280;3946;48.958;8.284;2023-05-24T07:35:31;100864.13;;;13.30;69.29
163;BME280;3946;48.958;8.284;2023-05-24T07:38:16;100860.06;;;13.39;69.56
163;BME280;3946;48.958;8.284;2023-05-24T07:41:02;100864.13;;;13.43;69.35
163;BME280;3946;48.958;8.284;2023-05-24T07:43:48;100857.44;;;13.39;69.38
163;BME280;3946;48.958;8.284;2023-05-24T07:46:33;100850.38;;;13.41;68.41
163;BME280;3946;48.958;8.284;2023-05-24T07:49:18;100853.91;;;13.40;68.40
163;BME280;3946;48.958;8.284;2023-05-24T07:52:05;100850.47;;;13.26;68.85
163;BME280;3946;48.958;8.284;2023-05-24T07:54:51;100841.19;;;13.48;67.78
163;BME280;3946;48.958;8.284;2023-05-24T07:57:36;100832.75;;;13.70;67.25
163;BME280;3946;48.958;8.284;2023-05-24T08:00:21;100812.56;;;13.73;66.25
163;BME280;3946;48.958;8.284;2023-05-24T08:03:06;100802.63;;;13.91;65.18
163;BME280;3946;48.958;8.284;2023-05-24T08:05:52;100793.88;;;13.92;64.70
163;BME280;3946;48.958;8.284;2023-05-24T08:08:38;100794.03;;;14.01;64.97
163;BME280;3946;48.958;8.284;2023-05-24T08:11:24;100803.03;;;13.85;64.72
163;BME280;3946;48.958;8.284;2023-05-24T08:14:10;100793.09;;;14.02;64.74
163;BME280;3946;48.958;8.284;2023-05-24T08:16:55;100779.75;;;14.31;63.91
163;BME280;3946;48.958;8.284;2023-05-24T08:19:41;100772.78;;;14.08;63.82
163;BME280;3946;48.958;8.284;2023-05-24T08:22:26;100783.56;;;14.14;63.56
163;BME280;3946;48.958;8.284;2023-05-24T08:25:13;100752.03;;;14.06;62.25
163;BME280;3946;48.958;8.284;2023-05-24T08:27:59;100779.81;;;13.94;63.23
163;BME280;3946;48.958;8.284;2023-05-24T08:30:44;100782.16;;;13.97;63.15
163;BME280;3946;48.958;8.284;2023-05-24T08:33:29;100802.69;;;14.02;63.56
163;BME280;3946;48.958;8.284;2023-05-24T08:36:15;100769.28;;;13.96;62.88
163;BME280;3946;48.958;8.284;2023-05-24T08:39:00;100789.19;;;13.84;63.32
163;BME280;3946;48.958;8.284;2023-05-24T08:41:47;100800.41;;;13.97;64.03
163;BME280;3946;48.958;8.284;2023-05-24T08:44:38;100750.34;;;14.29;61.94
163;BME280;3946;48.958;8.284;2023-05-24T08:47:25;100705.75;;;14.68;60.29
163;BME280;3946;48.958;8.284;2023-05-24T08:50:11;100677.28;;;15.44;58.55
163;BME280;3946;48.958;8.284;2023-05-24T08:52:58;100679.47;;;15.93;57.85
163;BME280;3946;48.958;8.284;2023-05-24T08:55:45;100614.28;;;16.33;54.76
163;BME280;3946;48.958;8.284;2023-05-24T08:58:32;100643.91;;;16.54;56.00
163;BME280;3946;48.958;8.284;2023-05-24T09:01:17;100577.94;;;16.81;52.47
163;BME280;3946;48.958;8.284;2023-05-24T09:04:03;100607.66;;;16.29;53.74
163;BME280;3946;48.958;8.284;2023-05-24T09:06:50;100625.06;;;16.19;54.71
163;BME280;3946;48.958;8.284;2023-05-24T09:09:37;100627.94;;;16.36;54.19
163;BME280;3946;48.958;8.284;2023-05-24T09:12:29;100645.63;;;16.23;55.10
163;BME280;3946;48.958;8.284;2023-05-24T09:15:17;100636.03;;;16.13;54.80
163;BME280;3946;48.958;8.284;2023-05-24T09:18:02;100708.50;;;15.90;57.60
163;BME280;3946;48.958;8.284;2023-05-24T09:20:48;100708.50;;;15.90;58.05
163;BME280;3946;48.958;8.284;2023-05-24T09:23:33;100698.75;;;15.81;57.45
163;BME280;3946;48.958;8.284;2023-05-24T09:26:19;100725.72;;;15.48;59.16
163;BME280;3946;48.958;8.284;2023-05-24T09:29:05;100770.59;;;15.19;60.27
163;BME280;3946;48.958;8.284;2023-05-24T09:31:54;100724.19;;;15.23;58.06
163;BME280;3946;48.958;8.284;2023-05-24T09:34:40;100735.00;;;15.52;58.65
163;BME280;3946;48.958;8.284;2023-05-24T09:37:26;100691.50;;;15.84;56.84
163;BME280;3946;48.958;8.284;2023-05-24T09:40:17;100642.28;;;16.00;54.89
163;BME280;3946;48.958;8.284;2023-05-24T09:43:04;100638.16;;;15.87;54.39
163;BME280;3946;48.958;8.284;2023-05-24T09:45:50;100590.25;;;16.39;52.53
163;BME280;3946;48.958;8.284;2023-05-24T09:48:38;100587.47;;;16.61;52.13
163;BME280;3946;48.958;8.284;2023-05-24T09:51:24;100569.00;;;16.84;51.20
163;BME280;3946;48.958;8.284;2023-05-24T09:54:11;100573.56;;;16.91;51.51
163;BME280;3946;48.958;8.284;2023-05-24T09:56:59;100594.63;;;16.90;52.22
163;BME280;3946;48.958;8.284;2023-05-24T09:59:45;100534.47;;;16.99;50.23
163;BME280;3946;48.958;8.284;2023-05-24T10:02:32;100548.28;;;17.11;50.14
163;BME280;3946;48.958;8.284;2023-05-24T10:05:21;100546.78;;;17.18;50.45
163;BME280;3946;48.958;8.284;2023-05-24T10:08:07;100543.66;;;16.84;49.05
163;BME280;3946;48.958;8.284;2023-05-24T10:10:54;100573.22;;;17.15;50.07
163;BME280;3946;48.958;8.284;2023-05-24T10:13:40;100561.47;;;17.00;49.44
163;BME280;3946;48.958;8.284;2023-05-24T10:16:26;100528.03;;;17.13;48.05
163;BME280;3946;48.958;8.284;2023-05-24T10:19:11;100550.28;;;17.76;48.30
163;BME280;3946;48.958;8.284;2023-05-24T10:21:59;100522.25;;;17.58;47.54
163;BME280;3946;48.958;8.284;2023-05-24T10:24:48;100532.75;;;17.87;48.23
163;BME280;3946;48.958;8.284;2023-05-24T10:27:34;100538.41;;;17.53;47.83
163;BME280;3946;48.958;8.284;2023-05-24T10:30:27;100585.06;;;17.69;49.77
163;BME280;3946;48.958;8.284;2023-05-24T10:33:15;100528.63;;;17.74;47.93
163;BME280;3946;48.958;8.284;2023-05-24T10:36:02;100523.50;;;17.63;47.80
163;BME280;3946;48.958;8.284;2023-05-24T10:38:51;100520.47;;;17.58;47.70
163;BME280;3946;48.958;8.284;2023-05-24T10:41:40;100506.44;;;17.69;47.14
163;BME280;3946;48.958;8.284;2023-05-24T10:44:28;100474.41;;;17.75;46.04
163;BME280;3946;48.958;8.284;2023-05-24T10:47:14;100473.63;;;17.65;45.95
163;BME280;3946;48.958;8.284;2023-05-24T10:50:15;100492.69;;;18.04;47.23
163;BME280;3946;48.958;8.284;2023-05-24T10:53:11;100501.31;;;17.77;47.07
163;BME280;3946;48.958;8.284;2023-05-24T10:55:59;100496.28;;;18.03;46.80
163;BME280;3946;48.958;8.284;2023-05-24T10:59:02;100465.00;;;18.01;45.62
163;BME280;3946;48.958;8.284;2023-05-24T11:01:54;100493.59;;;18.22;46.60
163;BME280;3946;48.958;8.284;2023-05-24T11:04:41;100428.28;;;18.56;44.24
163;BME280;3946;48.958;8.284;2023-05-24T11:07:27;100398.94;;;18.43;43.03
163;BME280;3946;48.958;8.284;2023-05-24T11:10:13;100440.22;;;18.13;44.96
163;BME280;3946;48.958;8.284;2023-05-24T11:13:01;100446.59;;;18.38;44.74
163;BME280;3946;48.958;8.284;2023-05-24T11:15:50;100443.16;;;18.38;44.21
163;BME280;3946;48.958;8.284;2023-05-24T11:18:36;100466.78;;;18.01;45.30
163;BME280;3946;48.958;8.284;2023-05-24T11:21:23;100491.59;;;18.06;46.33
163;BME280;3946;48.958;8.284;2023-05-24T11:24:11;100461.38;;;18.39;45.22
163;BME280;3946;48.958;8.284;2023-05-24T11:26:56;100457.69;;;18.32;45.03
163;BME280;3946;48.958;8.284;2023-05-24T11:29:44;100441.34;;;18.11;44.37
163;BME280;3946;48.958;8.284;2023-05-24T11:32:31;100452.66;;;18.39;45.16
163;BME280;3946;48.958;8.284;2023-05-24T11:35:17;100469.94;;;18.41;45.52
163;BME280;3946;48.958;8.284;2023-05-24T11:38:08;100525.78;;;18.24;47.83
163;BME280;3946;48.958;8.284;2023-05-24T11:40:57;100434.66;;;18.26;44.51
163;BME280;3946;48.958;8.284;2023-05-24T11:43:43;100454.81;;;18.26;45.17
163;BME280;3946;48.958;8.284;2023-05-24T11:46:30;100442.50;;;17.89;44.71
163;BME280;3946;48.958;8.284;2023-05-24T11:49:16;100484.34;;;17.81;45.96
163;BME280;3946;48.958;8.284;2023-05-24T11:52:01;100501.00;;;17.99;46.85
163;BME280;3946;48.958;8.284;2023-05-24T11:54:48;100456.25;;;18.38;44.80
163;BME280;3946;48.958;8.284;2023-05-24T11:57:36;100453.88;;;18.17;45.22
163;BME280;3946;48.958;8.284;2023-05-24T12:00:26;100500.78;;;18.30;46.97
163;BME280;3946;48.958;8.284;2023-05-24T12:03:12;100476.75;;;18.89;46.67
163;BME280;3946;48.958;8.284;2023-05-24T12:05:58;100476.91;;;19.23;45.95
163;BME280;3946;48.958;8.284;2023-05-24T12:08:44;100496.56;;;19.01;46.89
163;BME280;3946;48.958;8.284;2023-05-24T12:11:29;100463.72;;;19.15;45.32
163;BME280;3946;48.958;8.284;2023-05-24T12:14:14;100465.66;;;18.40;46.00
163;BME280;3946;48.958;8.284;2023-05-24T12:17:00;100462.31;;;18.11;46.01
163;BME280;3946;48.958;8.284;2023-05-24T12:19:47;100531.44;;;18.29;48.38
163;BME280;3946;48.958;8.284;2023-05-24T12:22:33;100495.28;;;18.60;46.81
163;BME280;3946;48.958;8.284;2023-05-24T12:25:18;100492.84;;;18.49;46.40
163;BME280;3946;48.958;8.284;2023-05-24T12:28:04;100468.81;;;18.07;46.10
163;BME280;3946;48.958;8.284;2023-05-24T12:30:49;100487.28;;;18.52;46.67
163;BME280;3946;48.958;8.284;2023-05-24T12:33:35;100477.19;;;18.20;46.44
163;BME280;3946;48.958;8.284;2023-05-24T12:36:23;100503.19;;;18.50;47.78
163;BME280;3946;48.958;8.284;2023-05-24T12:39:18;100475.75;;;17.89;47.03
163;BME280;3946;48.958;8.284;2023-05-24T12:42:04;100503.97;;;18.51;47.68
163;BME280;3946;48.958;8.284;2023-05-24T12:44:49;100452.81;;;18.37;46.19
163;BME280;3946;48.958;8.284;2023-05-24T12:47:37;100505.41;;;19.00;47.83
163;BME280;3946;48.958;8.284;2023-05-24T12:50:23;100446.03;;;18.72;45.72
163;BME280;3946;48.958;8.284;2023-05-24T12:53:10;100429.41;;;18.81;45.25
163;BME280;3946;48.958;8.284;2023-05-24T12:55:55;100446.44;;;18.95;46.11
163;BME280;3946;48.958;8.284;2023-05-24T12:58:43;100440.53;;;19.28;45.80
163;BME280;3946;48.958;8.284;2023-05-24T13:01:28;100417.41;;;18.96;44.67
163;BME280;3946;48.958;8.284;2023-05-24T13:04:13;100408.75;;;19.21;44.57
163;BME280;3946;48.958;8.284;2023-05-24T13:06:58;100434.97;;;19.31;45.53
163;BME280;3946;48.958;8.284;2023-05-24T13:09:45;100402.53;;;19.22;44.21
163;BME280;3946;48.958;8.284;2023-05-24T13:12:30;100364.50;;;19.09;43.27
163;BME280;3946;48.958;8.284;2023-05-24T13:15:16;100382.88;;;19.27;43.69
163;BME280;3946;48.958;8.284;2023-05-24T13:18:02;100350.84;;;18.87;42.29
163;BME280;3946;48.958;8.284;2023-05-24T13:20:47;100366.88;;;19.20;43.03
163;BME280;3946;48.958;8.284;2023-05-24T13:23:34;100362.28;;;18.96;42.99
163;BME280;3946;48.958;8.284;2023-05-24T13:26:22;100360.91;;;19.10;42.90
163;BME280;3946;48.958;8.284;2023-05-24T13:29:08;100342.00;;;19.32;42.50
163;BME280;3946;48.958;8.284;2023-05-24T13:31:53;100314.84;;;18.98;41.88
163;BME280;3946;48.958;8.284;2023-05-24T13:34:39;100363.53;;;19.10;43.47
163;BME280;3946;48.958;8.284;2023-05-24T13:37:24;100340.25;;;19.59;42.60
163;BME280;3946;48.958;8.284;2023-05-24T13:40:09;100323.56;;;19.24;41.77
163;BME280;3946;48.958;8.284;2023-05-24T13:42:58;100311.00;;;19.10;41.52
163;BME280;3946;48.958;8.284;2023-05-24T13:45:43;100363.38;;;19.37;43.13
163;BME280;3946;48.958;8.284;2023-05-24T13:48:28;100323.28;;;19.53;41.90
163;BME280;3946;48.958;8.284;2023-05-24T13:51:13;100344.81;;;19.56;42.66
163;BME280;3946;48.958;8.284;2023-05-24T13:54:01;100342.00;;;19.32;42.06
163;BME280;3946;48.958;8.284;2023-05-24T13:56:47;100380.50;;;19.59;43.62
163;BME280;3946;48.958;8.284;2023-05-24T13:59:34;100337.47;;;19.60;42.58
163;BME280;3946;48.958;8.284;2023-05-24T14:02:19;100322.66;;;19.59;41.78
163;BME280;3946;48.958;8.284;2023-05-24T14:05:04;100373.78;;;19.21;43.27
163;BME280;3946;48.958;8.284;2023-05-24T14:07:50;100324.19;;;19.44;41.72
163;BME280;3946;48.958;8.284;2023-05-24T14:10:35;100311.84;;;19.62;41.58
163;BME280;3946;48.958;8.284;2023-05-24T14:13:20;100344.66;;;19.58;42.17
163;BME280;3946;48.958;8.284;2023-05-24T14:16:07;100358.19;;;19.63;42.49
163;BME280;3946;48.958;8.284;2023-05-24T14:18:52;100331.69;;;19.39;41.91
163;BME280;3946;48.958;8.284;2023-05-24T14:21:38;100281.91;;;19.55;40.28
163;BME280;3946;48.958;8.284;2023-05-24T14:24:24;100311.81;;;19.36;41.28
163;BME280;3946;48.958;8.284;2023-05-24T14:27:09;100352.38;;;19.16;42.78
163;BME280;3946;48.958;8.284;2023-05-24T14:29:54;100323.03;;;19.20;41.68
163;BME280;3946;48.958;8.284;2023-05-24T14:32:40;100323.06;;;19.03;41.71
163;BME280;3946;48.958;8.284;2023-05-24T14:35:25;100302.06;;;19.03;40.91
163;BME280;3946;48.958;8.284;2023-05-24T14:38:11;100329.94;;;18.96;42.02
163;BME280;3946;48.958;8.284;2023-05-24T14:40:56;100299.78;;;19.26;40.52
163;BME280;3946;48.958;8.284;2023-05-24T14:43:42;100285.75;;;18.91;40.39
163;BME280;3946;48.958;8.284;2023-05-24T14:46:27;100357.50;;;19.00;42.64
163;BME280;3946;48.958;8.284;2023-05-24T14:49:13;100276.56;;;19.21;40.31
163;BME280;3946;48.958;8.284;2023-05-24T14:51:59;100281.19;;;19.01;40.16
163;BME280;3946;48.958;8.284;2023-05-24T14:54:45;100324.38;;;19.25;41.47
163;BME280;3946;48.958;8.284;2023-05-24T14:57:29;100304.50;;;19.74;40.94
163;BME280;3946;48.958;8.284;2023-05-24T15:00:15;100318.16;;;19.77;41.37
163;BME280;3946;48.958;8.284;2023-05-24T15:03:00;100257.31;;;19.64;39.33
163;BME280;3946;48.958;8.284;2023-05-24T15:05:51;100244.47;;;19.61;38.77
163;BME280;3946;48.958;8.284;2023-05-24T15:08:39;100249.63;;;19.45;38.62